createdAt,value
2016-05-31T00:00:41.797Z,15.5
2016-05-31T00:01:41.783Z,15.54
2016-05-31T00:02:41.786Z,15.54
2016-05-31T00:03:41.633Z,15.6
2016-05-31T00:04:41.791Z,15.57
2016-05-31T00:05:41.778Z,15.56
2016-05-31T00:06:41.781Z,15.47
2016-05-31T00:07:42.158Z,15.53
2016-05-31T00:08:41.630Z,15.49
2016-05-31T00:09:41.774Z,15.47
2016-05-31T00:10:41.777Z,15.57
2016-05-31T00:11:41.779Z,15.56
2016-05-31T00:12:41.766Z,15.54
2016-05-31T00:13:41.768Z,15.53
2016-05-31T00:14:41.615Z,15.5
2016-05-31T00:15:41.774Z,15.46
2016-05-31T00:16:41.777Z,15.43
2016-05-31T00:17:43.264Z,15.43
2016-05-31T00:18:41.609Z,15.44
2016-05-31T00:19:42.363Z,15.46
2016-05-31T00:20:42.569Z,15.46
2016-05-31T00:21:41.775Z,15.47
2016-05-31T00:22:42.261Z,15.46
2016-05-31T00:23:41.608Z,15.47
2016-05-31T00:24:41.750Z,15.38
2016-05-31T00:25:41.754Z,15.47
2016-05-31T00:26:42.600Z,15.44
2016-05-31T00:27:42.900Z,15.44
2016-05-31T00:28:42.402Z,15.5
2016-05-31T00:29:41.750Z,15.49
2016-05-31T00:30:42.705Z,15.49
2016-05-31T00:31:41.755Z,15.43
2016-05-31T00:32:42.350Z,15.51
2016-05-31T00:33:58.763Z,15.51
2016-05-31T00:34:42.028Z,15.57
2016-05-31T00:35:42.375Z,15.54
2016-05-31T00:36:42.455Z,15.51
2016-05-31T00:37:42.208Z,15.51
2016-05-31T00:38:41.741Z,15.5
2016-05-31T00:39:41.730Z,15.5
2016-05-31T00:40:41.591Z,15.64
2016-05-31T00:41:41.734Z,15.6
2016-05-31T00:42:57.068Z,15.49
2016-05-31T00:43:41.724Z,15.59
2016-05-31T00:44:41.743Z,15.54
2016-05-31T00:45:42.135Z,15.53
2016-05-31T00:46:41.592Z,15.67
2016-05-31T00:47:41.579Z,15.5
2016-05-31T00:48:41.863Z,15.57
2016-05-31T00:49:41.726Z,15.59
2016-05-31T00:50:41.728Z,15.56
2016-05-31T00:51:41.730Z,15.54
2016-05-31T00:52:42.577Z,15.59
2016-05-31T00:53:41.736Z,15.56
2016-05-31T00:54:41.567Z,15.54
2016-05-31T00:55:41.725Z,15.49
2016-05-31T00:56:41.712Z,15.49
2016-05-31T00:57:41.715Z,15.51
2016-05-31T00:58:41.717Z,15.39
2016-05-31T00:59:41.720Z,15.53
2016-05-31T01:00:41.723Z,15.43
2016-05-31T01:01:41.725Z,15.53
2016-05-31T01:02:41.713Z,15.54
2016-05-31T01:03:41.716Z,15.49
2016-05-31T01:04:41.719Z,15.56
2016-05-31T01:05:41.705Z,15.53
2016-05-31T01:06:41.552Z,15.5
2016-05-31T01:07:41.867Z,15.54
2016-05-31T01:08:41.697Z,15.54
2016-05-31T01:09:41.700Z,15.67
2016-05-31T01:10:41.703Z,15.64
2016-05-31T01:11:41.705Z,15.6
2016-05-31T01:12:41.708Z,15.54
2016-05-31T01:13:41.696Z,15.56
2016-05-31T01:14:41.698Z,15.51
2016-05-31T01:15:41.529Z,15.5
2016-05-31T01:16:41.688Z,15.49
2016-05-31T01:17:41.690Z,15.53
2016-05-31T01:18:41.537Z,15.59
2016-05-31T01:19:41.696Z,15.6
2016-05-31T01:20:41.714Z,15.69
2016-05-31T01:21:41.529Z,15.67
2016-05-31T01:22:41.532Z,15.68
2016-05-31T01:23:41.753Z,15.51
2016-05-31T01:24:41.710Z,15.54
2016-05-31T01:25:41.697Z,15.56
2016-05-31T01:26:41.684Z,15.54
2016-05-31T01:27:41.514Z,15.57
2016-05-31T01:28:41.673Z,15.62
2016-05-31T01:29:41.676Z,15.54
2016-05-31T01:30:41.679Z,15.6
2016-05-31T01:31:41.509Z,15.54
2016-05-31T01:32:41.684Z,15.49
2016-05-31T01:33:41.686Z,15.5
2016-05-31T01:34:41.675Z,15.57
2016-05-31T01:35:41.677Z,15.5
2016-05-31T01:36:44.226Z,15.56
2016-05-31T01:37:42.042Z,15.53
2016-05-31T01:38:42.919Z,15.56
2016-05-31T01:39:42.735Z,15.59
2016-05-31T01:40:42.268Z,15.6
2016-05-31T01:41:41.661Z,15.53
2016-05-31T01:42:41.663Z,15.46
2016-05-31T01:43:41.495Z,15.44
2016-05-31T01:44:41.654Z,15.41
2016-05-31T01:45:43.266Z,15.41
2016-05-31T01:46:43.253Z,15.46
2016-05-31T01:47:43.162Z,15.43
2016-05-31T01:48:42.149Z,15.35
2016-05-31T01:49:41.652Z,15.41
2016-05-31T01:50:41.764Z,15.31
2016-05-31T01:51:42.970Z,15.44
2016-05-31T01:52:41.832Z,15.38
2016-05-31T01:53:43.131Z,15.36
2016-05-31T01:54:41.650Z,15.38
2016-05-31T01:55:41.653Z,15.34
2016-05-31T01:56:42.312Z,15.36
2016-05-31T01:57:41.595Z,15.35
2016-05-31T01:58:41.661Z,15.28
2016-05-31T01:59:41.647Z,15.25
2016-05-31T02:00:41.634Z,15.28
2016-05-31T02:01:42.090Z,15.21
2016-05-31T02:02:42.281Z,15.2
2016-05-31T02:03:41.861Z,15.21
2016-05-31T02:04:41.630Z,15.2
2016-05-31T02:05:41.725Z,15.27
2016-05-31T02:06:41.636Z,15.17
2016-05-31T02:07:41.903Z,15.2
2016-05-31T02:08:41.468Z,15.27
2016-05-31T02:09:41.611Z,15.19
2016-05-31T02:10:41.630Z,15.2
2016-05-31T02:11:41.617Z,15.2
2016-05-31T02:12:41.620Z,15.16
2016-05-31T02:13:41.607Z,15.2
2016-05-31T02:14:41.610Z,15.23
2016-05-31T02:15:41.613Z,15.25
2016-05-31T02:16:41.615Z,15.13
2016-05-31T02:17:41.618Z,15.19
2016-05-31T02:18:41.605Z,15.13
2016-05-31T02:19:41.608Z,15.13
2016-05-31T02:20:41.626Z,15.13
2016-05-31T02:21:41.613Z,15.16
2016-05-31T02:22:42.912Z,15.17
2016-05-31T02:23:41.603Z,15.2
2016-05-31T02:24:41.606Z,15.14
2016-05-31T02:25:41.437Z,15.13
2016-05-31T02:26:41.596Z,15.06
2016-05-31T02:27:41.598Z,15.01
2016-05-31T02:28:41.601Z,15.03
2016-05-31T02:29:41.588Z,15.09
2016-05-31T02:30:41.590Z,15.01
2016-05-31T02:31:41.593Z,14.99
2016-05-31T02:32:41.439Z,15.09
2016-05-31T02:33:41.598Z,14.99
2016-05-31T02:34:41.586Z,15.16
2016-05-31T02:35:41.589Z,15.07
2016-05-31T02:36:41.419Z,15.07
2016-05-31T02:37:41.875Z,15.07
2016-05-31T02:38:41.268Z,15.01
2016-05-31T02:39:41.583Z,15.01
2016-05-31T02:40:41.414Z,15.06
2016-05-31T02:41:41.416Z,15.06
2016-05-31T02:42:41.575Z,15.07
2016-05-31T02:43:41.578Z,15.11
2016-05-31T02:44:41.566Z,15.1
2016-05-31T02:45:41.568Z,15.06
2016-05-31T02:46:41.571Z,15.06
2016-05-31T02:47:41.573Z,15.07
2016-05-31T02:48:41.560Z,15.06
2016-05-31T02:49:41.563Z,15.06
2016-05-31T02:50:41.566Z,15.06
2016-05-31T02:51:41.554Z,15.09
2016-05-31T02:52:41.587Z,15.07
2016-05-31T02:53:41.684Z,15.06
2016-05-31T02:54:41.404Z,15.01
2016-05-31T02:55:41.407Z,15.02
2016-05-31T02:56:43.004Z,15.01
2016-05-31T02:57:41.554Z,15.06
2016-05-31T02:58:41.400Z,15.03
2016-05-31T02:59:41.543Z,15.07
2016-05-31T03:00:42.045Z,15.07
2016-05-31T03:01:41.549Z,15.06
2016-05-31T03:02:41.536Z,15.1
2016-05-31T03:03:41.539Z,15.14
2016-05-31T03:04:57.966Z,15.1
2016-05-31T03:05:42.231Z,15.14
2016-05-31T03:06:41.797Z,15.19
2016-05-31T03:07:41.939Z,15.16
2016-05-31T03:08:42.709Z,15.23
2016-05-31T03:09:42.180Z,15.17
2016-05-31T03:10:42.323Z,15.2
2016-05-31T03:11:43.763Z,15.25
2016-05-31T03:12:41.812Z,15.31
2016-05-31T03:13:42.831Z,15.27
2016-05-31T03:14:41.521Z,15.32
2016-05-31T03:15:42.227Z,15.36
2016-05-31T03:16:41.714Z,15.38
2016-05-31T03:17:41.841Z,15.34
2016-05-31T03:18:41.360Z,15.28
2016-05-31T03:19:41.519Z,15.32
2016-05-31T03:20:42.302Z,15.39
2016-05-31T03:21:41.509Z,15.46
2016-05-31T03:22:41.902Z,15.38
2016-05-31T03:23:42.640Z,15.47
2016-05-31T03:24:41.517Z,15.36
2016-05-31T03:25:41.520Z,15.46
2016-05-31T03:26:41.523Z,15.5
2016-05-31T03:27:41.493Z,15.54
2016-05-31T03:28:41.370Z,15.49
2016-05-31T03:29:41.499Z,15.54
2016-05-31T03:30:41.501Z,15.6
2016-05-31T03:31:41.504Z,15.6
2016-05-31T03:32:41.507Z,15.62
2016-05-31T03:33:41.337Z,15.6
2016-05-31T03:34:41.497Z,15.75
2016-05-31T03:35:41.500Z,15.71
2016-05-31T03:36:41.487Z,15.78
2016-05-31T03:37:41.927Z,15.9
2016-05-31T03:38:41.758Z,15.84
2016-05-31T03:39:41.339Z,15.94
2016-05-31T03:40:41.497Z,15.96
2016-05-31T03:41:41.484Z,16.02
2016-05-31T03:42:41.486Z,15.97
2016-05-31T03:43:41.489Z,16.11
2016-05-31T03:44:41.492Z,16.08
2016-05-31T03:45:41.494Z,16.08
2016-05-31T03:46:41.483Z,16.07
2016-05-31T03:47:41.485Z,16.11
2016-05-31T03:48:41.487Z,16.12
2016-05-31T03:49:41.491Z,16.21
2016-05-31T03:50:41.493Z,16.15
2016-05-31T03:51:41.479Z,16.23
2016-05-31T03:52:41.483Z,16.27
2016-05-31T03:53:41.345Z,16.21
2016-05-31T03:54:41.332Z,16.31
2016-05-31T03:55:41.476Z,16.45
2016-05-31T03:56:41.493Z,16.52
2016-05-31T03:57:41.481Z,16.63
2016-05-31T03:58:41.484Z,16.75
2016-05-31T03:59:41.486Z,16.75
2016-05-31T04:00:41.473Z,16.83
2016-05-31T04:01:41.319Z,17.01
2016-05-31T04:02:41.495Z,17.08
2016-05-31T04:03:41.465Z,17.06
2016-05-31T04:04:41.499Z,17.15
2016-05-31T04:05:41.315Z,17.08
2016-05-31T04:06:41.473Z,17.12
2016-05-31T04:07:42.178Z,17.18
2016-05-31T04:08:41.760Z,17.12
2016-05-31T04:09:41.482Z,17.12
2016-05-31T04:10:41.328Z,17.26
2016-05-31T04:11:41.486Z,17.22
2016-05-31T04:12:41.318Z,17.33
2016-05-31T04:13:41.477Z,17.37
2016-05-31T04:14:42.822Z,17.3
2016-05-31T04:15:41.497Z,17.41
2016-05-31T04:16:42.032Z,17.41
2016-05-31T04:17:41.925Z,17.56
2016-05-31T04:18:42.177Z,17.54
2016-05-31T04:19:41.336Z,17.63
2016-05-31T04:20:41.480Z,17.58
2016-05-31T04:21:41.482Z,17.64
2016-05-31T04:22:41.501Z,17.72
2016-05-31T04:23:41.879Z,17.77
2016-05-31T04:24:43.179Z,17.89
2016-05-31T04:25:43.087Z,17.86
2016-05-31T04:26:42.277Z,18
2016-05-31T04:27:41.483Z,18.12
2016-05-31T04:28:41.782Z,18.15
2016-05-31T04:29:42.253Z,18.27
2016-05-31T04:30:41.475Z,18.39
2016-05-31T04:31:42.276Z,18.52
2016-05-31T04:32:41.700Z,18.67
2016-05-31T04:33:41.952Z,18.8
2016-05-31T04:34:41.721Z,18.84
2016-05-31T04:35:41.473Z,19.04
2016-05-31T04:36:41.725Z,19.33
2016-05-31T04:37:42.167Z,19.54
2016-05-31T04:38:41.419Z,19.73
2016-05-31T04:39:41.484Z,19.92
2016-05-31T04:40:42.689Z,20.23
2016-05-31T04:41:43.006Z,20.32
2016-05-31T04:42:42.695Z,20.52
2016-05-31T04:43:41.494Z,20.69
2016-05-31T04:44:41.544Z,20.84
2016-05-31T04:45:41.500Z,20.99
2016-05-31T04:46:41.613Z,21.09
2016-05-31T04:47:41.521Z,21.21
2016-05-31T04:48:41.508Z,21.27
2016-05-31T04:49:41.511Z,21.31
2016-05-31T04:50:41.357Z,21.34
2016-05-31T04:51:41.376Z,21.35
2016-05-31T04:52:41.847Z,21.37
2016-05-31T04:53:41.382Z,21.25
2016-05-31T04:54:41.540Z,21.14
2016-05-31T04:55:41.387Z,21.07
2016-05-31T04:56:41.545Z,20.99
2016-05-31T04:57:41.548Z,20.97
2016-05-31T04:58:41.551Z,20.88
2016-05-31T04:59:41.553Z,20.91
2016-05-31T05:00:41.416Z,20.99
2016-05-31T05:01:41.403Z,21.06
2016-05-31T05:02:41.576Z,21.21
2016-05-31T05:03:41.409Z,21.21
2016-05-31T05:04:41.567Z,21.32
2016-05-31T05:05:41.570Z,21.5
2016-05-31T05:06:41.587Z,21.62
2016-05-31T05:07:41.560Z,21.86
2016-05-31T05:08:41.453Z,22.02
2016-05-31T05:09:41.595Z,22.24
2016-05-31T05:10:41.442Z,22.3
2016-05-31T05:11:41.616Z,22.52
2016-05-31T05:12:41.604Z,22.54
2016-05-31T05:13:41.606Z,22.65
2016-05-31T05:14:41.609Z,22.61
2016-05-31T05:15:41.628Z,22.67
2016-05-31T05:16:41.646Z,22.58
2016-05-31T05:17:41.633Z,22.52
2016-05-31T05:18:41.651Z,22.35
2016-05-31T05:19:41.639Z,22.15
2016-05-31T05:20:41.641Z,22.09
2016-05-31T05:21:41.644Z,22.07
2016-05-31T05:22:42.255Z,22.02
2016-05-31T05:23:41.758Z,22.06
2016-05-31T05:24:41.683Z,22.09
2016-05-31T05:25:41.670Z,22.07
2016-05-31T05:26:41.673Z,22.1
2016-05-31T05:27:41.676Z,22.2
2016-05-31T05:28:41.679Z,22.22
2016-05-31T05:29:41.681Z,22.27
2016-05-31T05:30:41.699Z,22.27
2016-05-31T05:31:41.702Z,22.37
2016-05-31T05:32:41.704Z,22.39
2016-05-31T05:33:43.645Z,22.35
2016-05-31T05:34:42.804Z,22.33
2016-05-31T05:35:41.713Z,22.3
2016-05-31T05:36:41.731Z,22.37
2016-05-31T05:37:43.203Z,22.4
2016-05-31T05:38:42.236Z,22.33
2016-05-31T05:39:41.739Z,22.39
2016-05-31T05:40:41.570Z,22.43
2016-05-31T05:41:41.744Z,22.45
2016-05-31T05:42:41.685Z,22.51
2016-05-31T05:43:42.453Z,22.68
2016-05-31T05:44:42.519Z,22.82
2016-05-31T05:45:41.599Z,22.94
2016-05-31T05:46:42.914Z,22.95
2016-05-31T05:47:41.777Z,23.23
2016-05-31T05:48:43.200Z,23.46
2016-05-31T05:49:43.172Z,23.8
2016-05-31T05:50:42.580Z,24.12
2016-05-31T05:51:41.788Z,24.47
2016-05-31T05:52:42.649Z,24.81
2016-05-31T05:53:42.276Z,25.17
2016-05-31T05:54:42.342Z,25.43
2016-05-31T05:55:41.657Z,25.62
2016-05-31T05:56:42.035Z,25.87
2016-05-31T05:57:41.827Z,26.02
2016-05-31T05:59:42.839Z,26.35
2016-05-31T06:00:43.462Z,26.4
2016-05-31T06:01:41.663Z,26.48
2016-05-31T06:02:42.687Z,26.57
2016-05-31T06:03:42.043Z,26.6
2016-05-31T06:04:41.883Z,26.6
2016-05-31T06:05:42.286Z,26.6
2016-05-31T06:06:42.064Z,26.7
2016-05-31T06:07:42.121Z,26.69
2016-05-31T06:08:42.252Z,26.8
2016-05-31T06:09:42.118Z,26.85
2016-05-31T06:10:42.124Z,26.81
2016-05-31T06:11:42.146Z,26.92
2016-05-31T06:12:42.151Z,26.99
2016-05-31T06:13:42.170Z,27
2016-05-31T06:14:42.190Z,27.02
2016-05-31T06:15:42.179Z,26.81
2016-05-31T06:16:42.025Z,26.73
2016-05-31T06:17:42.201Z,26.76
2016-05-31T06:18:42.204Z,26.8
2016-05-31T06:19:42.051Z,26.85
2016-05-31T06:20:42.241Z,26.82
2016-05-31T06:21:42.244Z,26.76
2016-05-31T06:22:42.795Z,26.63
2016-05-31T06:23:42.125Z,26.39
2016-05-31T06:24:42.268Z,26.23
2016-05-31T06:25:42.272Z,26.15
2016-05-31T06:26:42.290Z,26.23
2016-05-31T06:27:42.308Z,26.23
2016-05-31T06:28:42.295Z,26.23
2016-05-31T06:29:42.298Z,26.32
2016-05-31T06:30:42.316Z,26.32
2016-05-31T06:31:42.178Z,26.5
2016-05-31T06:32:42.337Z,26.82
2016-05-31T06:33:42.355Z,27.1
2016-05-31T06:34:42.359Z,27.41
2016-05-31T06:35:42.361Z,27.75
2016-05-31T06:36:42.379Z,28.14
2016-05-31T06:37:42.397Z,28.4
2016-05-31T06:38:43.026Z,28.62
2016-05-31T06:39:42.090Z,28.67
2016-05-31T06:40:42.420Z,28.74
2016-05-31T06:41:42.267Z,28.81
2016-05-31T06:42:42.442Z,28.93
2016-05-31T06:43:42.445Z,29.04
2016-05-31T06:44:42.447Z,29.21
2016-05-31T06:45:42.481Z,29.28
2016-05-31T06:46:42.483Z,29.36
2016-05-31T06:47:42.487Z,29.42
2016-05-31T06:48:42.505Z,29.61
2016-05-31T06:49:42.508Z,29.65
2016-05-31T06:50:42.527Z,29.73
2016-05-31T06:51:42.544Z,29.67
2016-05-31T06:52:43.094Z,29.63
2016-05-31T06:53:44.690Z,29.65
2016-05-31T06:54:42.708Z,29.74
2016-05-31T06:55:43.258Z,29.74
2016-05-31T06:56:42.589Z,29.68
2016-05-31T06:57:42.451Z,29.68
2016-05-31T06:58:42.626Z,29.86
2016-05-31T06:59:42.629Z,30.04
2016-05-31T07:00:42.647Z,30.24
2016-05-31T07:01:44.665Z,30.32
2016-05-31T07:02:42.668Z,30.16
2016-05-31T07:03:42.686Z,30.17
2016-05-31T07:04:42.704Z,29.8
2016-05-31T07:05:43.817Z,29.36
2016-05-31T07:06:42.725Z,29.06
2016-05-31T07:08:42.778Z,28.25
2016-05-31T07:09:43.015Z,27.94
2016-05-31T07:10:44.064Z,27.66
2016-05-31T07:11:42.801Z,27.6
2016-05-31T07:12:42.881Z,27.77
2016-05-31T07:13:42.807Z,28.03
2016-05-31T07:14:42.841Z,28.36
2016-05-31T07:15:43.078Z,28.7
2016-05-31T07:16:42.846Z,29.02
2016-05-31T07:17:43.880Z,29.27
2016-05-31T07:18:42.726Z,29.42
2016-05-31T07:19:43.230Z,29.53
2016-05-31T07:20:43.294Z,29.67
2016-05-31T07:21:43.078Z,29.78
2016-05-31T07:22:42.955Z,29.65
2016-05-31T07:23:42.959Z,29.61
2016-05-31T07:24:42.805Z,29.46
2016-05-31T07:25:42.807Z,29.41
2016-05-31T07:26:42.998Z,29.58
2016-05-31T07:27:43.001Z,29.6
2016-05-31T07:28:43.004Z,29.7
2016-05-31T07:29:42.865Z,29.94
2016-05-31T07:30:43.040Z,30.37
2016-05-31T07:31:43.043Z,30.46
2016-05-31T07:32:43.077Z,30.43
2016-05-31T07:33:42.923Z,30.49
2016-05-31T07:34:43.098Z,30.32
2016-05-31T07:35:43.115Z,30.49
2016-05-31T07:36:43.118Z,30.15
2016-05-31T07:37:43.684Z,30.08
2016-05-31T07:38:43.327Z,30.1
2016-05-31T07:39:43.158Z,30.08
2016-05-31T07:40:43.176Z,30.08
2016-05-31T07:41:43.054Z,30.34
2016-05-31T07:42:43.056Z,30.64
2016-05-31T07:43:43.075Z,30.86
2016-05-31T07:44:43.233Z,31.13
2016-05-31T07:45:43.253Z,31.01
2016-05-31T07:46:43.271Z,30.91
2016-05-31T07:47:43.289Z,30.6
2016-05-31T07:48:43.291Z,30.35
2016-05-31T07:49:43.325Z,30.08
2016-05-31T07:50:43.344Z,30.05
2016-05-31T07:51:43.362Z,30.15
2016-05-31T07:52:44.286Z,30.04
2016-05-31T07:53:43.399Z,30.19
2016-05-31T07:54:43.401Z,30.49
2016-05-31T07:55:43.405Z,30.51
2016-05-31T07:56:43.422Z,30.39
2016-05-31T07:57:43.441Z,30.29
2016-05-31T07:58:43.443Z,30.19
2016-05-31T07:59:43.305Z,30.29
2016-05-31T08:00:43.480Z,29.94
2016-05-31T08:01:43.514Z,29.51
2016-05-31T08:02:43.501Z,29.27
2016-05-31T08:03:43.534Z,29.19
2016-05-31T08:04:43.538Z,29.27
2016-05-31T08:05:43.541Z,29.26
2016-05-31T08:06:43.559Z,29.46
2016-05-31T08:07:43.717Z,29.64
2016-05-31T08:08:43.954Z,29.64
2016-05-31T08:09:43.613Z,29.63
2016-05-31T08:10:43.617Z,29.55
2016-05-31T08:11:45.135Z,29.33
2016-05-31T08:12:43.887Z,29.15
2016-05-31T08:13:44.811Z,29
2016-05-31T08:14:43.659Z,28.93
2016-05-31T08:15:43.676Z,28.9
2016-05-31T08:16:43.367Z,28.9
2016-05-31T08:17:44.056Z,28.93
2016-05-31T08:18:43.716Z,28.98
2016-05-31T08:19:43.718Z,29.02
2016-05-31T08:20:43.580Z,28.8
2016-05-31T08:21:44.942Z,28.55
2016-05-31T08:22:45.211Z,28.56
2016-05-31T08:23:44.416Z,28.68
2016-05-31T08:24:43.779Z,28.9
2016-05-31T08:25:44.438Z,29.11
2016-05-31T08:26:43.894Z,29.28
2016-05-31T08:27:45.740Z,29.39
2016-05-31T08:28:45.383Z,29.36
2016-05-31T08:29:44.385Z,29.05
2016-05-31T08:30:43.686Z,28.88
2016-05-31T08:31:43.704Z,28.86
2016-05-31T08:32:43.863Z,28.81
2016-05-31T08:33:44.256Z,28.89
2016-05-31T08:34:43.884Z,28.89
2016-05-31T08:35:43.887Z,29.02
2016-05-31T08:36:44.576Z,29.18
2016-05-31T08:37:46.283Z,29.31
2016-05-31T08:38:44.285Z,29.6
2016-05-31T08:39:44.710Z,29.82
2016-05-31T08:40:44.056Z,30.07
2016-05-31T08:41:43.809Z,30.19
2016-05-31T08:42:43.984Z,30.11
2016-05-31T08:43:44.283Z,30.2
2016-05-31T08:44:43.848Z,30.32
2016-05-31T08:45:44.023Z,30.45
2016-05-31T08:46:44.009Z,30.45
2016-05-31T08:47:44.028Z,30.49
2016-05-31T08:48:44.031Z,30.34
2016-05-31T08:49:44.050Z,30.45
2016-05-31T08:50:44.052Z,30.46
2016-05-31T08:51:44.086Z,30.58
2016-05-31T08:52:43.807Z,30.75
2016-05-31T08:53:44.357Z,30.83
2016-05-31T08:54:43.953Z,30.92
2016-05-31T08:55:44.113Z,30.82
2016-05-31T08:56:43.974Z,30.79
2016-05-31T08:57:44.149Z,30.76
2016-05-31T08:58:44.167Z,30.75
2016-05-31T08:59:44.154Z,30.39
2016-05-31T09:00:44.172Z,30.32
2016-05-31T09:01:44.191Z,30.16
2016-05-31T09:02:44.209Z,30.13
2016-05-31T09:03:44.227Z,30.13
2016-05-31T09:04:44.230Z,30.08
2016-05-31T09:05:44.232Z,30.05
2016-05-31T09:06:44.251Z,30.17
2016-05-31T09:07:44.504Z,30.22
2016-05-31T09:08:44.991Z,30.2
2016-05-31T09:09:44.275Z,30.24
2016-05-31T09:10:44.293Z,30.26
2016-05-31T09:11:44.311Z,30.34
2016-05-31T09:12:44.158Z,30.2
2016-05-31T09:13:44.332Z,30.1
2016-05-31T09:14:44.179Z,30.07
2016-05-31T09:15:44.353Z,30.08
2016-05-31T09:16:44.356Z,29.98
2016-05-31T09:17:44.374Z,30.05
2016-05-31T09:18:44.378Z,30.02
2016-05-31T09:19:44.083Z,29.82
2016-05-31T09:20:44.398Z,29.42
2016-05-31T09:21:44.416Z,29.11
2016-05-31T09:22:44.311Z,29.02
2016-05-31T09:23:44.124Z,29.09
2016-05-31T09:24:44.456Z,29.02
2016-05-31T09:25:44.333Z,28.92
2016-05-31T09:26:44.477Z,28.9
2016-05-31T09:27:44.479Z,28.88
2016-05-31T09:28:44.498Z,29.11
2016-05-31T09:29:44.344Z,29.3
2016-05-31T09:30:44.457Z,29.48
2016-05-31T09:31:44.537Z,29.7
2016-05-31T09:32:45.353Z,29.73
2016-05-31T09:33:44.557Z,29.73
2016-05-31T09:34:44.561Z,29.79
2016-05-31T09:35:44.579Z,29.8
2016-05-31T09:36:45.018Z,29.73
2016-05-31T09:37:45.179Z,29.61
2016-05-31T09:38:45.041Z,29.26
2016-05-31T09:39:44.621Z,29.14
2016-05-31T09:40:44.624Z,28.89
2016-05-31T09:41:45.345Z,28.51
2016-05-31T09:42:45.348Z,28.18
2016-05-31T09:43:44.491Z,28.14
2016-05-31T09:44:45.056Z,27.93
2016-05-31T09:45:44.668Z,28.03
2016-05-31T09:46:45.796Z,28.04
2016-05-31T09:47:45.673Z,28.21
2016-05-31T09:48:45.036Z,28.24
2016-05-31T09:49:44.711Z,28.37
2016-05-31T09:50:44.714Z,28.44
2016-05-31T09:51:53.747Z,28.67
2016-05-31T09:52:45.141Z,28.8
2016-05-31T09:53:45.658Z,29.05
2016-05-31T09:54:44.771Z,29.14
2016-05-31T09:56:45.402Z,28.98
2016-05-31T09:57:44.794Z,28.96
2016-05-31T09:58:44.907Z,28.89
2016-05-31T09:59:44.893Z,28.89
2016-05-31T10:00:44.819Z,28.67
2016-05-31T10:01:45.024Z,28.58
2016-05-31T10:02:44.839Z,28.62
2016-05-31T10:03:44.857Z,28.68
2016-05-31T10:04:44.907Z,28.9
2016-05-31T10:05:44.878Z,28.92
2016-05-31T10:06:44.897Z,29.11
2016-05-31T10:07:45.181Z,29.09
2016-05-31T10:08:45.074Z,29.06
2016-05-31T10:09:44.920Z,29.06
2016-05-31T10:10:44.924Z,29.23
2016-05-31T10:11:44.942Z,29.48
2016-05-31T10:12:44.960Z,29.63
2016-05-31T10:13:44.806Z,29.58
2016-05-31T10:14:44.981Z,29.43
2016-05-31T10:15:44.983Z,29.19
2016-05-31T10:16:45.002Z,29.05
2016-05-31T10:17:45.004Z,29.09
2016-05-31T10:18:45.023Z,29.26
2016-05-31T10:19:45.025Z,29.43
2016-05-31T10:20:45.029Z,29.51
2016-05-31T10:21:45.062Z,29.71
2016-05-31T10:22:45.533Z,29.68
2016-05-31T10:23:46.131Z,29.55
2016-05-31T10:24:45.086Z,29.41
2016-05-31T10:25:45.088Z,29.43
2016-05-31T10:26:45.091Z,29.42
2016-05-31T10:27:45.125Z,29.36
2016-05-31T10:28:45.128Z,29.24
2016-05-31T10:29:44.990Z,29.16
2016-05-31T10:30:45.133Z,29.24
2016-05-31T10:31:45.152Z,29.33
2016-05-31T10:32:45.029Z,29.39
2016-05-31T10:33:45.172Z,29.3
2016-05-31T10:34:45.175Z,29.24
2016-05-31T10:35:45.209Z,29.21
2016-05-31T10:36:45.212Z,29.28
2016-05-31T10:37:46.683Z,29.27
2016-05-31T10:38:45.483Z,29.34
2016-05-31T10:39:45.235Z,29.43
2016-05-31T10:40:45.098Z,29.65
2016-05-31T10:41:45.257Z,29.67
2016-05-31T10:42:45.290Z,29.43
2016-05-31T10:43:45.309Z,29.16
2016-05-31T10:44:45.281Z,28.95
2016-05-31T10:45:45.298Z,28.88
2016-05-31T10:46:45.301Z,28.8
2016-05-31T10:47:45.320Z,28.95
2016-05-31T10:48:45.166Z,29.11
2016-05-31T10:49:46.201Z,29.27
2016-05-31T10:50:45.593Z,29.34
2016-05-31T10:51:45.362Z,29.48
2016-05-31T10:52:45.677Z,29.46
2016-05-31T10:53:59.585Z,29.39
2016-05-31T10:54:46.198Z,29.21
2016-05-31T10:55:45.403Z,29.05
2016-05-31T10:56:45.266Z,28.77
2016-05-31T10:57:45.269Z,28.58
2016-05-31T10:58:45.427Z,28.43
2016-05-31T10:59:46.336Z,28.46
2016-05-31T11:00:46.495Z,28.52
2016-05-31T11:01:46.216Z,28.59
2016-05-31T11:02:45.922Z,28.85
2016-05-31T11:03:45.488Z,28.92
2016-05-31T11:04:45.537Z,29.06
2016-05-31T11:05:46.868Z,29.06
2016-05-31T11:06:46.949Z,29.08
2016-05-31T11:07:46.279Z,29.08
2016-05-31T11:08:45.377Z,28.85
2016-05-31T11:09:45.723Z,28.93
2016-05-31T11:10:46.209Z,28.89
2016-05-31T11:11:45.712Z,28.9
2016-05-31T11:12:45.574Z,28.81
2016-05-31T11:13:45.592Z,28.8
2016-05-31T11:14:45.596Z,28.54
2016-05-31T11:15:47.614Z,28.29
2016-05-31T11:16:45.898Z,28.11
2016-05-31T11:17:46.463Z,28.07
2016-05-31T11:18:46.184Z,28.17
2016-05-31T11:19:45.656Z,28.21
2016-05-31T11:20:45.502Z,28.41
2016-05-31T11:21:45.786Z,28.48
2016-05-31T11:22:45.679Z,28.43
2016-05-31T11:23:45.807Z,28.36
2016-05-31T11:24:45.700Z,28.24
2016-05-31T11:25:45.703Z,28.25
2016-05-31T11:26:45.722Z,28.29
2016-05-31T11:27:45.724Z,28.25
2016-05-31T11:28:45.727Z,28.24
2016-05-31T11:29:45.589Z,28.31
2016-05-31T11:30:45.763Z,28.34
2016-05-31T11:31:45.766Z,28.4
2016-05-31T11:32:45.784Z,28.48
2016-05-31T11:33:45.772Z,28.62
2016-05-31T11:34:45.790Z,28.61
2016-05-31T11:35:45.793Z,28.62
2016-05-31T11:36:45.654Z,28.68
2016-05-31T11:37:45.829Z,28.8
2016-05-31T11:38:46.096Z,28.88
2016-05-31T11:39:45.834Z,28.85
2016-05-31T11:40:45.853Z,29.09
2016-05-31T11:41:45.699Z,29.16
2016-05-31T11:42:45.873Z,29.33
2016-05-31T11:43:45.877Z,29.43
2016-05-31T11:44:45.895Z,29.34
2016-05-31T11:45:45.898Z,29.48
2016-05-31T11:46:45.916Z,29.46
2016-05-31T11:47:45.918Z,29.51
2016-05-31T11:48:45.920Z,29.6
2016-05-31T11:49:45.939Z,29.42
2016-05-31T11:50:45.801Z,29.24
2016-05-31T11:51:45.945Z,29.09
2016-05-31T11:52:45.807Z,29.05
2016-05-31T11:53:45.997Z,29.12
2016-05-31T11:54:45.984Z,29.21
2016-05-31T11:55:45.986Z,29.18
2016-05-31T11:56:46.052Z,29.24
2016-05-31T11:57:46.023Z,29.27
2016-05-31T11:58:46.026Z,29.34
2016-05-31T11:59:46.044Z,29.45
2016-05-31T12:00:46.047Z,29.37
2016-05-31T12:01:46.065Z,29.39
2016-05-31T12:02:46.068Z,29.45
2016-05-31T12:03:46.103Z,29.45
2016-05-31T12:04:46.089Z,29.58
2016-05-31T12:05:46.092Z,29.78
2016-05-31T12:06:46.110Z,29.73
2016-05-31T12:07:46.784Z,29.68
2016-05-31T12:08:46.600Z,29.76
2016-05-31T12:09:46.150Z,29.82
2016-05-31T12:10:47.449Z,29.82
2016-05-31T12:11:46.155Z,29.94
2016-05-31T12:12:46.063Z,30.07
2016-05-31T12:13:46.176Z,30.01
2016-05-31T12:14:46.648Z,29.92
2016-05-31T12:15:46.196Z,29.83
2016-05-31T12:16:46.059Z,29.82
2016-05-31T12:17:46.234Z,29.8
2016-05-31T12:18:46.783Z,29.95
2016-05-31T12:19:46.098Z,30.1
2016-05-31T12:20:46.257Z,29.94
2016-05-31T12:21:46.120Z,29.94
2016-05-31T12:22:46.560Z,29.83
2016-05-31T12:23:46.672Z,29.64
2016-05-31T12:24:46.939Z,29.34
2016-05-31T12:25:47.348Z,29.27
2016-05-31T12:26:47.008Z,29.23
2016-05-31T12:27:46.323Z,29.43
2016-05-31T12:28:47.060Z,29.6
2016-05-31T12:29:46.797Z,29.7
2016-05-31T12:30:46.347Z,29.58
2016-05-31T12:31:46.364Z,29.3
2016-05-31T12:32:46.367Z,29.27
2016-05-31T12:33:48.885Z,29.24
2016-05-31T12:34:47.841Z,29.23
2016-05-31T12:35:46.422Z,29.14
2016-05-31T12:36:47.175Z,29.11
2016-05-31T12:37:47.913Z,29.16
2016-05-31T12:38:47.180Z,29.09
2016-05-31T12:39:46.808Z,29.05
2016-05-31T12:40:46.451Z,29.12
2016-05-31T12:41:46.313Z,29.14
2016-05-31T12:42:46.488Z,29.19
2016-05-31T12:43:46.491Z,29.14
2016-05-31T12:44:46.493Z,29
2016-05-31T12:45:46.356Z,28.81
2016-05-31T12:46:46.373Z,28.68
2016-05-31T12:47:46.517Z,28.55
2016-05-31T12:48:46.536Z,28.44
2016-05-31T12:49:46.382Z,28.37
2016-05-31T12:50:46.573Z,28.36
2016-05-31T12:51:46.559Z,28.25
2016-05-31T12:52:46.609Z,28.41
2016-05-31T12:53:46.486Z,28.62
2016-05-31T12:54:46.598Z,28.81
2016-05-31T12:55:46.601Z,28.93
2016-05-31T12:56:46.620Z,29.02
2016-05-31T12:57:46.622Z,28.93
2016-05-31T12:58:46.625Z,28.92